Time,TemperatureF,DewpointF,PressureIn,WindDirection,WindDirectionDegrees,WindSpeedMPH,WindSpeedGustMPH,Humidity,HourlyPrecipIn,Conditions,Clouds,dailyrainin,SoftwareType,DateUTC
2013-02-04 00:00:00,19.9,13.9,30.05,West,270,0.0,0.0,77,0.00,,,0.00,VWS V14.01,2013-02-04 05:00:00,
2013-02-04 00:15:00,20.2,14.2,30.04,West,270,0.0,0.0,77,0.00,,,0.00,VWS V14.01,2013-02-04 05:15:00,
2013-02-04 00:30:00,20.5,14.4,30.04,West,270,0.0,0.0,77,0.00,,,0.00,VWS V14.01,2013-02-04 05:30:00,
2013-02-04 00:45:00,20.5,14.4,30.04,West,270,0.0,0.0,77,0.00,,,0.00,VWS V14.01,2013-02-04 05:45:00,
2013-02-04 01:00:00,20.6,14.6,30.04,West,270,0.0,0.0,77,0.00,,,0.00,VWS V14.01,2013-02-04 06:00:00,
2013-02-04 01:15:00,21.0,14.9,30.04,West,270,0.0,0.0,77,0.00,,,0.00,VWS V14.01,2013-02-04 06:15:00,
2013-02-04 01:30:00,21.3,15.2,30.03,West,270,0.0,0.0,77,0.00,,,0.00,VWS V14.01,2013-02-04 06:30:00,
2013-02-04 01:45:00,21.6,15.5,30.03,West,270,0.0,0.0,77,0.00,,,0.00,VWS V14.01,2013-02-04 06:45:00,
2013-02-04 02:00:00,21.9,15.8,30.03,West,270,0.0,0.0,77,0.00,,,0.00,VWS V14.01,2013-02-04 07:00:00,
2013-02-04 02:15:00,22.1,16.0,30.03,West,270,0.0,0.0,77,0.00,,,0.00,VWS V14.01,2013-02-04 07:15:00,
2013-02-04 02:30:00,21.9,16.7,30.03,West,270,0.0,0.0,80,0.00,,,0.00,VWS V14.01,2013-02-04 07:30:00,
2013-02-04 02:45:00,21.8,17.4,30.03,West,270,0.0,0.0,83,0.00,,,0.00,VWS V14.01,2013-02-04 07:45:00,
2013-02-04 03:00:00,21.8,17.7,30.03,West,270,0.0,0.0,84,0.00,,,0.00,VWS V14.01,2013-02-04 08:00:00,
2013-02-04 03:15:00,21.9,17.5,30.02,West,270,0.0,0.0,83,0.00,,,0.00,VWS V14.01,2013-02-04 08:15:00,
2013-02-04 03:30:00,21.9,17.3,30.01,West,270,0.0,0.0,82,0.00,,,0.00,VWS V14.01,2013-02-04 08:30:00,
2013-02-04 03:45:00,21.9,17.3,30.01,West,270,0.0,0.0,82,0.00,,,0.00,VWS V14.01,2013-02-04 08:45:00,
2013-02-04 04:00:00,21.8,16.9,30.00,West,270,0.0,0.0,81,0.00,,,0.00,VWS V14.01,2013-02-04 09:00:00,
2013-02-04 04:15:00,21.8,16.9,29.99,West,270,0.0,0.0,81,0.00,,,0.00,VWS V14.01,2013-02-04 09:15:00,
2013-02-04 04:30:00,21.9,17.0,29.98,West,270,0.0,0.0,81,0.00,,,0.00,VWS V14.01,2013-02-04 09:30:00,
2013-02-04 04:45:00,22.1,17.2,29.97,West,270,0.0,0.0,81,0.00,,,0.00,VWS V14.01,2013-02-04 09:45:00,
2013-02-04 05:00:00,22.1,17.2,29.96,West,270,0.0,0.0,81,0.00,,,0.00,VWS V14.01,2013-02-04 10:00:00,
2013-02-04 05:15:00,22.2,17.0,29.96,West,270,0.0,0.0,80,0.00,,,0.00,VWS V14.01,2013-02-04 10:15:00,
2013-02-04 05:30:00,22.4,17.2,29.95,West,270,0.0,0.0,80,0.00,,,0.00,VWS V14.01,2013-02-04 10:30:00,
2013-02-04 05:45:00,22.5,17.0,29.94,West,270,0.0,0.0,79,0.00,,,0.00,VWS V14.01,2013-02-04 10:45:00,
2013-02-04 06:00:00,22.7,17.2,29.94,West,270,0.0,0.0,79,0.00,,,0.00,VWS V14.01,2013-02-04 11:00:00,
2013-02-04 06:15:00,22.9,17.4,29.94,West,270,0.0,0.0,79,0.00,,,0.00,VWS V14.01,2013-02-04 11:15:00,
2013-02-04 06:30:00,22.9,17.4,29.93,West,270,0.0,0.0,79,0.00,,,0.00,VWS V14.01,2013-02-04 11:30:00,
2013-02-04 06:45:00,23.0,17.5,29.92,West,270,0.0,0.0,79,0.00,,,0.00,VWS V14.01,2013-02-04 11:45:00,
2013-02-04 07:00:00,23.0,17.5,29.92,West,270,0.0,0.0,79,0.00,,,0.00,VWS V14.01,2013-02-04 12:00:00,
2013-02-04 07:15:00,23.2,17.7,29.92,West,270,0.0,0.0,79,0.00,,,0.00,VWS V14.01,2013-02-04 12:15:00,
2013-02-04 07:30:00,23.3,17.8,29.92,West,270,0.0,0.0,79,0.00,,,0.00,VWS V14.01,2013-02-04 12:30:00,
2013-02-04 07:45:00,23.5,18.0,29.91,West,270,0.0,0.0,79,0.00,,,0.00,VWS V14.01,2013-02-04 12:45:00,
2013-02-04 08:00:00,23.5,18.2,29.90,West,270,0.0,0.0,80,0.00,,,0.00,VWS V14.01,2013-02-04 13:00:00,
2013-02-04 08:15:00,23.5,18.2,29.89,West,270,0.0,0.0,80,0.00,,,0.00,VWS V14.01,2013-02-04 13:15:00,
2013-02-04 08:30:00,23.8,18.5,29.89,West,270,0.0,0.0,80,0.00,,,0.00,VWS V14.01,2013-02-04 13:30:00,
2013-02-04 08:45:00,24.1,18.8,29.88,West,270,0.0,0.0,80,0.00,,,0.00,VWS V14.01,2013-02-04 13:45:00,
2013-02-04 09:00:00,24.5,18.9,29.88,West,270,0.0,0.0,79,0.00,,,0.00,VWS V14.01,2013-02-04 14:00:00,
2013-02-04 09:15:00,25.1,19.8,29.87,West,270,0.0,0.0,80,0.00,,,0.00,VWS V14.01,2013-02-04 14:15:00,
2013-02-04 09:30:00,25.6,20.0,29.85,West,270,0.0,0.0,79,0.00,,,0.00,VWS V14.01,2013-02-04 14:30:00,
2013-02-04 09:45:00,25.8,20.2,29.84,West,270,0.0,0.0,79,0.00,,,0.00,VWS V14.01,2013-02-04 14:45:00,
2013-02-04 10:00:00,26.4,20.2,29.84,West,270,0.0,0.0,77,0.00,,,0.00,VWS V14.01,2013-02-04 15:00:00,
2013-02-04 10:15:00,27.3,20.4,29.84,West,270,0.0,0.0,75,0.00,,,0.00,VWS V14.01,2013-02-04 15:15:00,
2013-02-04 10:30:00,28.4,20.9,29.84,West,270,0.0,0.0,73,0.00,,,0.00,VWS V14.01,2013-02-04 15:30:00,
2013-02-04 10:45:00,29.3,21.1,29.84,West,270,0.0,0.0,71,0.00,,,0.00,VWS V14.01,2013-02-04 15:45:00,
2013-02-04 11:00:00,30.0,20.4,29.84,West,270,0.0,0.0,67,0.00,,,0.00,VWS V14.01,2013-02-04 16:00:00,
2013-02-04 11:15:00,30.4,21.5,29.84,West,270,0.0,0.0,69,0.00,,,0.00,VWS V14.01,2013-02-04 16:15:00,
2013-02-04 11:30:00,30.9,21.9,29.84,West,270,0.0,0.0,69,0.00,,,0.00,VWS V14.01,2013-02-04 16:30:00,
2013-02-04 11:45:00,31.6,21.9,29.83,West,270,0.0,0.0,67,0.00,,,0.00,VWS V14.01,2013-02-04 16:45:00,
2013-02-04 12:00:00,31.9,22.2,29.83,West,270,0.0,0.0,67,0.00,,,0.00,VWS V14.01,2013-02-04 17:00:00,
2013-02-04 12:15:00,32.5,23.5,29.82,West,270,0.0,0.0,69,0.00,,,0.00,VWS V14.01,2013-02-04 17:15:00,
2013-02-04 12:30:00,32.8,23.8,29.81,West,270,0.0,0.0,69,0.00,,,0.00,VWS V14.01,2013-02-04 17:30:00,
2013-02-04 12:45:00,33.4,24.0,29.80,West,270,0.0,0.0,68,0.01,,,0.01,VWS V14.01,2013-02-04 17:45:00,
2013-02-04 13:00:00,33.7,24.6,29.79,West,270,0.0,0.0,69,0.01,,,0.01,VWS V14.01,2013-02-04 18:00:00,
2013-02-04 13:15:00,33.8,24.4,29.79,West,270,0.0,0.0,68,0.01,,,0.01,VWS V14.01,2013-02-04 18:15:00,
2013-02-04 13:30:00,33.8,24.7,29.78,West,270,0.0,0.0,69,0.01,,,0.01,VWS V14.01,2013-02-04 18:30:00,
2013-02-04 13:45:00,34.0,25.3,29.78,West,270,0.0,0.0,70,0.01,,,0.01,VWS V14.01,2013-02-04 18:45:00,
2013-02-04 14:00:00,34.7,25.6,29.77,West,270,0.0,0.0,69,0.00,,,0.01,VWS V14.01,2013-02-04 19:00:00,
2013-02-04 14:15:00,35.0,26.6,29.77,West,270,0.0,0.0,71,0.00,,,0.01,VWS V14.01,2013-02-04 19:15:00,
2013-02-04 14:30:00,35.2,26.4,29.77,West,270,0.0,0.0,70,0.00,,,0.01,VWS V14.01,2013-02-04 19:30:00,
2013-02-04 14:45:00,35.8,27.0,29.76,West,270,0.0,0.0,70,0.00,,,0.01,VWS V14.01,2013-02-04 19:45:00,
2013-02-04 15:00:00,36.0,27.2,29.76,West,270,0.0,0.0,70,0.00,,,0.01,VWS V14.01,2013-02-04 20:00:00,
2013-02-04 15:15:00,35.9,27.1,29.76,West,270,0.0,0.0,70,0.00,,,0.01,VWS V14.01,2013-02-04 20:15:00,
2013-02-04 15:30:00,35.8,26.3,29.76,West,270,0.0,0.0,68,0.00,,,0.01,VWS V14.01,2013-02-04 20:30:00,
2013-02-04 15:45:00,35.5,27.4,29.76,West,270,0.0,0.0,72,0.00,,,0.01,VWS V14.01,2013-02-04 20:45:00,
2013-02-04 16:00:00,35.3,27.5,29.77,West,270,0.0,0.0,73,0.00,,,0.01,VWS V14.01,2013-02-04 21:00:00,
2013-02-04 16:15:00,35.2,27.1,29.77,West,270,0.0,0.0,72,0.00,,,0.01,VWS V14.01,2013-02-04 21:15:00,
2013-02-04 16:30:00,35.5,27.0,29.77,West,270,0.0,0.0,71,0.00,,,0.01,VWS V14.01,2013-02-04 21:30:00,
2013-02-04 16:45:00,35.8,26.6,29.77,West,270,0.0,0.0,69,0.00,,,0.01,VWS V14.01,2013-02-04 21:45:00,
2013-02-04 17:00:00,35.8,26.3,29.77,West,270,0.0,0.0,68,0.00,,,0.01,VWS V14.01,2013-02-04 22:00:00,
2013-02-04 17:15:00,35.3,26.2,29.77,West,270,0.0,0.0,69,0.00,,,0.01,VWS V14.01,2013-02-04 22:15:00,
2013-02-04 17:30:00,34.4,26.0,29.78,West,270,0.0,0.0,71,0.00,,,0.01,VWS V14.01,2013-02-04 22:30:00,
2013-02-04 17:45:00,32.8,25.4,29.77,West,270,0.0,0.0,74,0.00,,,0.01,VWS V14.01,2013-02-04 22:45:00,
2013-02-04 18:00:00,31.6,25.2,29.77,West,270,0.0,0.0,77,0.00,,,0.01,VWS V14.01,2013-02-04 23:00:00,
2013-02-04 18:15:00,30.9,24.9,29.77,West,270,0.0,0.0,78,0.00,,,0.01,VWS V14.01,2013-02-04 23:15:00,
2013-02-04 18:30:00,30.6,24.6,29.77,West,270,0.0,0.0,78,0.00,,,0.01,VWS V14.01,2013-02-04 23:30:00,
2013-02-04 18:45:00,30.7,25.0,29.78,West,270,0.0,0.0,79,0.00,,,0.01,VWS V14.01,2013-02-04 23:45:00,
2013-02-04 19:00:00,30.9,25.2,29.81,West,270,0.0,0.0,79,0.00,,,0.01,VWS V14.01,2013-02-05 00:00:00,
2013-02-04 19:15:00,31.2,24.8,29.81,West,270,0.0,0.0,77,0.00,,,0.01,VWS V14.01,2013-02-05 00:15:00,
2013-02-04 19:30:00,31.0,24.6,29.82,West,270,0.0,0.0,77,0.00,,,0.01,VWS V14.01,2013-02-05 00:30:00,
2013-02-04 19:45:00,30.7,24.7,29.83,West,270,0.0,0.0,78,0.00,,,0.01,VWS V14.01,2013-02-05 00:45:00,
2013-02-04 20:00:00,30.1,24.4,29.84,West,270,0.0,0.0,79,0.00,,,0.01,VWS V14.01,2013-02-05 01:00:00,
2013-02-04 20:15:00,29.8,24.4,29.84,West,270,0.0,0.0,80,0.00,,,0.01,VWS V14.01,2013-02-05 01:15:00,
2013-02-04 20:30:00,29.4,24.0,29.85,West,270,0.0,0.0,80,0.00,,,0.01,VWS V14.01,2013-02-05 01:30:00,
2013-02-04 20:45:00,28.8,23.7,29.85,West,270,0.0,0.0,81,0.00,,,0.01,VWS V14.01,2013-02-05 01:45:00,
2013-02-04 21:00:00,28.5,23.7,29.86,West,270,0.0,0.0,82,0.00,,,0.01,VWS V14.01,2013-02-05 02:00:00,
2013-02-04 21:15:00,28.4,23.6,29.86,West,270,0.0,0.0,82,0.00,,,0.01,VWS V14.01,2013-02-05 02:15:00,
2013-02-04 21:30:00,28.4,23.3,29.86,West,270,0.0,0.0,81,0.00,,,0.01,VWS V14.01,2013-02-05 02:30:00,
2013-02-04 21:45:00,28.2,22.8,29.86,West,270,0.0,0.0,80,0.00,,,0.01,VWS V14.01,2013-02-05 02:45:00,
2013-02-04 22:00:00,28.1,22.4,29.86,West,270,0.0,0.0,79,0.00,,,0.01,VWS V14.01,2013-02-05 03:00:00,
2013-02-04 22:15:00,27.8,22.1,29.86,West,270,0.0,0.0,79,0.00,,,0.01,VWS V14.01,2013-02-05 03:15:00,
2013-02-04 22:30:00,27.8,22.1,29.86,West,270,0.0,0.0,79,0.00,,,0.01,VWS V14.01,2013-02-05 03:30:00,
2013-02-04 22:45:00,27.6,22.2,29.86,West,270,0.0,0.0,80,0.00,,,0.01,VWS V14.01,2013-02-05 03:45:00,
2013-02-04 23:00:00,27.5,22.5,29.87,West,270,0.0,0.0,81,0.00,,,0.01,VWS V14.01,2013-02-05 04:00:00,
2013-02-04 23:15:00,27.2,21.9,29.88,West,270,0.0,0.0,80,0.00,,,0.01,VWS V14.01,2013-02-05 04:15:00,
2013-02-04 23:30:00,26.9,21.6,29.88,West,270,0.0,0.0,80,0.00,,,0.01,VWS V14.01,2013-02-05 04:30:00,
2013-02-04 23:45:00,26.7,21.7,29.87,West,270,0.0,0.0,81,0.00,,,0.01,VWS V14.01,2013-02-05 04:45:00,